createdAt,value
2022-11-20T00:00:58.157Z,51.30
2022-11-20T00:03:26.096Z,52.67
2022-11-20T00:05:55.433Z,54.38
2022-11-20T00:08:23.300Z,56.90
2022-11-20T00:10:51.218Z,48.35
2022-11-20T00:13:19.095Z,46.75
2022-11-20T00:15:46.989Z,44.70
2022-11-20T00:18:14.958Z,43.78
2022-11-20T00:20:42.890Z,51.33
2022-11-20T00:23:12.161Z,46.63
2022-11-20T00:25:40.068Z,50.63
2022-11-20T00:28:08.012Z,44.40
2022-11-20T00:30:36.013Z,47.50
2022-11-20T00:33:04.008Z,42.53
2022-11-20T00:35:32.142Z,46.20
2022-11-20T00:38:00.124Z,50.45
2022-11-20T00:40:29.443Z,47.38
2022-11-20T00:42:57.460Z,47.15
2022-11-20T00:45:25.329Z,42.92
2022-11-20T00:47:53.320Z,48.28
2022-11-20T00:50:21.212Z,48.47
2022-11-20T00:52:49.193Z,46.15
2022-11-20T00:55:17.234Z,48.97
2022-11-20T00:57:46.481Z,48.38
2022-11-20T01:00:14.859Z,48.13
2022-11-20T01:02:42.777Z,45.50
2022-11-20T01:05:10.776Z,44.30
2022-11-20T01:07:38.797Z,43.72
2022-11-20T01:10:07.907Z,43.60
2022-11-20T01:12:35.817Z,48.90
2022-11-20T01:15:05.743Z,45.55
2022-11-20T01:17:34.020Z,43.40
2022-11-20T01:20:02.055Z,44.85
2022-11-20T01:22:29.958Z,45.13
2022-11-20T01:24:57.927Z,48.20
2022-11-20T01:27:25.904Z,42.78
2022-11-20T01:29:58.241Z,44.50
2022-11-20T01:32:30.162Z,47.53
2022-11-20T01:34:58.147Z,41.72
2022-11-20T01:37:26.075Z,49.88
2022-11-20T01:39:54.206Z,47.38
2022-11-20T01:42:39.939Z,56.15
2022-11-20T01:45:52.792Z,49.60
2022-11-20T01:48:25.012Z,48.38
2022-11-20T01:50:54.623Z,71.82
2022-11-20T01:53:27.304Z,58.80
2022-11-20T01:55:58.692Z,63.22
2022-11-20T01:58:30.747Z,51.20
2022-11-20T02:00:59.006Z,50.00
2022-11-20T02:03:29.576Z,99.38
2022-11-20T02:06:03.344Z,58.75
2022-11-20T02:08:32.897Z,62.33
2022-11-20T02:11:00.936Z,70.30
2022-11-20T02:13:46.094Z,104.25
2022-11-20T02:16:17.823Z,63.83
2022-11-20T02:18:48.357Z,47.60
2022-11-20T02:21:29.254Z,45.47
2022-11-20T02:24:07.831Z,48.40
2022-11-20T02:26:43.171Z,45.20
2022-11-20T02:29:11.328Z,44.63
2022-11-20T02:31:42.001Z,42.20
2022-11-20T02:34:10.291Z,45.65
2022-11-20T02:36:41.138Z,41.58
2022-11-20T02:39:13.552Z,35.33
2022-11-20T02:41:41.508Z,44.60
2022-11-20T02:44:09.426Z,46.78
2022-11-20T02:46:37.338Z,43.58
2022-11-20T02:49:06.125Z,39.85
2022-11-20T02:51:34.405Z,41.13
2022-11-20T02:54:02.337Z,43.92
2022-11-20T02:56:32.450Z,41.63
2022-11-20T02:59:00.373Z,41.83
2022-11-20T03:01:28.457Z,47.80
2022-11-20T03:03:57.009Z,45.38
2022-11-20T03:06:24.970Z,50.25
2022-11-20T03:08:53.036Z,48.30
2022-11-20T03:11:21.799Z,46.50
2022-11-20T03:13:51.076Z,52.47
2022-11-20T03:16:21.212Z,58.55
2022-11-20T03:18:49.285Z,58.70
2022-11-20T03:21:17.773Z,49.80
2022-11-20T03:23:45.782Z,52.10
2022-11-20T03:26:16.304Z,52.22
2022-11-20T03:28:47.805Z,53.40
2022-11-20T03:31:19.571Z,58.67
2022-11-20T03:33:47.591Z,50.35
2022-11-20T03:36:17.662Z,55.72
2022-11-20T03:38:46.060Z,52.75
2022-11-20T03:41:15.988Z,48.40
2022-11-20T03:43:43.913Z,50.83
2022-11-20T03:46:11.859Z,55.53
2022-11-20T03:48:41.143Z,58.13
2022-11-20T03:51:10.861Z,56.10
2022-11-20T03:53:38.911Z,48.60
2022-11-20T03:56:07.800Z,55.30
2022-11-20T03:58:36.908Z,47.05
2022-11-20T04:01:09.545Z,48.10
2022-11-20T04:03:38.291Z,53.28
2022-11-20T04:06:10.969Z,48.30
2022-11-20T04:08:39.697Z,53.00
2022-11-20T04:11:15.070Z,48.72
2022-11-20T04:13:43.849Z,51.58
2022-11-20T04:16:12.087Z,52.92
2022-11-20T04:18:40.272Z,52.67
2022-11-20T04:21:09.623Z,43.03
2022-11-20T04:23:37.754Z,43.50
2022-11-20T04:26:06.364Z,46.70
2022-11-20T04:28:34.272Z,49.63
2022-11-20T04:31:05.980Z,50.88
2022-11-20T04:33:34.583Z,43.00
2022-11-20T04:36:04.692Z,42.90
2022-11-20T04:38:34.177Z,50.80
2022-11-20T04:41:03.484Z,44.33
2022-11-20T04:43:32.055Z,46.15
2022-11-20T04:46:00.777Z,46.25
2022-11-20T04:48:29.955Z,52.40
2022-11-20T04:50:58.307Z,48.35
2022-11-20T04:53:26.370Z,56.47
2022-11-20T04:56:01.627Z,41.92
2022-11-20T04:58:29.643Z,46.35
2022-11-20T05:01:04.330Z,49.33
2022-11-20T05:03:32.881Z,44.15
2022-11-20T05:06:02.488Z,42.53
2022-11-20T05:08:30.591Z,39.28
2022-11-20T05:11:03.930Z,52.45
2022-11-20T05:13:32.034Z,39.42
2022-11-20T05:16:04.335Z,45.47
2022-11-20T05:18:32.561Z,42.20
2022-11-20T05:21:00.982Z,40.88
2022-11-20T05:23:29.884Z,59.33
2022-11-20T05:25:59.683Z,71.22
2022-11-20T05:28:30.087Z,55.78
2022-11-20T05:30:58.273Z,53.60
2022-11-20T05:33:26.195Z,43.13
2022-11-20T05:35:54.082Z,41.95
2022-11-20T05:38:22.054Z,61.58
2022-11-20T05:40:49.940Z,41.92
2022-11-20T05:43:17.893Z,41.15
2022-11-20T05:45:54.188Z,45.95
2022-11-20T05:48:22.282Z,42.00
2022-11-20T05:50:50.434Z,44.65
2022-11-20T05:53:18.371Z,39.47
2022-11-20T05:55:46.384Z,40.03
2022-11-20T05:58:14.312Z,75.28
2022-11-20T06:00:42.385Z,50.85
2022-11-20T06:03:11.667Z,51.72
2022-11-20T06:05:39.642Z,51.15
2022-11-20T06:08:07.546Z,50.53
2022-11-20T06:10:35.471Z,48.50
2022-11-20T06:13:03.424Z,51.30
2022-11-20T06:15:31.585Z,47.60
2022-11-20T06:17:59.914Z,53.03
2022-11-20T06:20:29.222Z,45.60
2022-11-20T06:22:57.134Z,39.70
2022-11-20T06:25:25.238Z,39.22
2022-11-20T06:27:53.730Z,43.55
2022-11-20T06:30:21.654Z,38.38
2022-11-20T06:32:49.625Z,46.88
2022-11-20T06:35:17.734Z,41.45
2022-11-20T06:37:47.053Z,45.85
2022-11-20T06:40:15.437Z,44.33
2022-11-20T06:42:43.452Z,43.85
2022-11-20T06:45:12.271Z,42.45
2022-11-20T06:47:40.376Z,41.45
2022-11-20T06:50:08.973Z,40.95
2022-11-20T06:52:40.889Z,47.30
2022-11-20T06:55:13.731Z,44.45
2022-11-20T06:57:41.655Z,43.35
2022-11-20T07:00:11.128Z,47.22
2022-11-20T07:02:39.468Z,42.22
2022-11-20T07:05:07.902Z,45.20
2022-11-20T07:07:35.938Z,46.55
2022-11-20T07:10:03.914Z,47.97
2022-11-20T07:12:33.190Z,50.97
2022-11-20T07:15:01.135Z,45.38
2022-11-20T07:17:29.094Z,42.42
2022-11-20T07:19:57.143Z,45.78
2022-11-20T07:22:25.110Z,47.05
2022-11-20T07:24:53.085Z,46.80
2022-11-20T07:27:21.024Z,47.10
2022-11-20T07:29:50.291Z,46.92
2022-11-20T07:32:18.296Z,49.08
2022-11-20T07:34:46.544Z,47.35
2022-11-20T07:37:14.566Z,48.55
2022-11-20T07:39:42.640Z,49.13
2022-11-20T07:42:10.966Z,41.63
2022-11-20T07:44:39.169Z,47.17
2022-11-20T07:47:08.452Z,48.72
2022-11-20T07:49:36.385Z,39.85
2022-11-20T07:52:05.358Z,32.30
2022-11-20T07:54:33.704Z,35.28
2022-11-20T07:57:01.779Z,32.17
2022-11-20T07:59:29.750Z,31.70
2022-11-20T08:01:57.827Z,30.17
2022-11-20T08:04:27.149Z,29.85
2022-11-20T08:06:55.243Z,29.73
2022-11-20T08:09:23.451Z,31.70
2022-11-20T08:12:09.324Z,31.33
2022-11-20T08:14:37.294Z,30.88
2022-11-20T08:17:05.370Z,30.10
2022-11-20T08:19:34.655Z,30.67
2022-11-20T08:22:02.577Z,32.45
2022-11-20T08:24:30.512Z,31.80
2022-11-20T08:26:59.722Z,33.25
2022-11-20T08:29:28.528Z,31.73
2022-11-20T08:31:56.467Z,32.67
2022-11-20T08:34:24.512Z,29.58
2022-11-20T08:36:53.859Z,28.23
2022-11-20T08:39:22.154Z,30.13
2022-11-20T08:41:50.224Z,34.65
2022-11-20T08:44:18.442Z,31.02
2022-11-20T08:46:47.293Z,30.65
2022-11-20T08:49:16.205Z,31.17
2022-11-20T08:51:44.686Z,29.83
2022-11-20T08:54:14.421Z,31.33
2022-11-20T08:56:42.534Z,34.33
2022-11-20T08:59:23.352Z,35.90
2022-11-20T09:01:59.379Z,30.33
2022-11-20T09:04:27.361Z,25.08
2022-11-20T09:06:55.482Z,30.45
2022-11-20T09:09:24.964Z,31.27
2022-11-20T09:11:53.057Z,26.60
2022-11-20T09:14:21.027Z,26.45
2022-11-20T09:16:49.054Z,22.40
2022-11-20T09:22:05.238Z,26.42
2022-11-20T09:24:34.600Z,25.95
2022-11-20T09:27:05.182Z,27.25
2022-11-20T09:29:33.127Z,29.80
2022-11-20T09:32:01.159Z,28.65
2022-11-20T09:34:29.143Z,30.58
2022-11-20T09:36:58.492Z,27.77
2022-11-20T09:39:28.084Z,30.10
2022-11-20T09:42:13.184Z,29.83
2022-11-20T09:44:54.357Z,32.05
2022-11-20T09:47:35.034Z,36.13
2022-11-20T09:50:18.286Z,37.08
2022-11-20T09:52:55.977Z,32.55
2022-11-20T09:55:24.096Z,34.83
2022-11-20T09:57:54.601Z,33.20
2022-11-20T10:00:24.324Z,39.50
2022-11-20T10:02:57.169Z,36.92
2022-11-20T10:05:29.093Z,32.05
2022-11-20T10:08:14.769Z,28.67
2022-11-20T10:10:50.771Z,30.33
2022-11-20T10:13:35.519Z,28.50
2022-11-20T10:16:23.445Z,26.30
2022-11-20T10:19:07.272Z,21.20
2022-11-20T10:21:47.750Z,22.40
2022-11-20T10:24:36.612Z,23.40
2022-11-20T10:27:23.588Z,22.65
2022-11-20T10:30:02.967Z,19.80
2022-11-20T10:32:38.309Z,19.30
2022-11-20T10:35:16.225Z,21.88
2022-11-20T10:37:46.923Z,19.08
2022-11-20T10:40:23.695Z,19.27
2022-11-20T10:42:57.042Z,15.88
2022-11-20T10:45:41.317Z,17.75
2022-11-20T10:48:19.163Z,18.92
2022-11-20T10:50:57.017Z,17.95
2022-11-20T10:53:42.659Z,20.48
2022-11-20T10:56:18.568Z,19.73
2022-11-20T10:58:56.451Z,20.00
2022-11-20T11:01:27.586Z,18.50
2022-11-20T11:03:57.560Z,15.45
2022-11-20T11:06:34.042Z,15.13
2022-11-20T11:09:22.983Z,18.27
2022-11-20T11:11:51.364Z,15.93
2022-11-20T11:14:19.809Z,18.30
2022-11-20T11:16:54.071Z,18.15
2022-11-20T11:19:22.458Z,18.15
2022-11-20T11:21:55.936Z,16.52
2022-11-20T11:24:41.752Z,17.73
2022-11-20T11:27:17.321Z,17.27
2022-11-20T11:29:46.049Z,15.75
2022-11-20T11:32:17.401Z,18.70
2022-11-20T11:34:45.577Z,16.95
2022-11-20T11:37:19.095Z,18.35
2022-11-20T11:40:03.801Z,19.33
2022-11-20T11:42:37.839Z,21.08
2022-11-20T11:45:08.064Z,23.50
2022-11-20T11:47:45.295Z,22.83
2022-11-20T11:50:22.290Z,23.08
2022-11-20T11:53:00.489Z,23.45
2022-11-20T11:55:35.157Z,21.17
2022-11-20T11:58:24.633Z,20.50
2022-11-20T12:00:58.226Z,21.55
2022-11-20T12:03:34.889Z,20.73
2022-11-20T12:06:08.603Z,21.50
2022-11-20T12:08:46.668Z,18.80
2022-11-20T12:11:19.242Z,26.27
2022-11-20T12:13:54.726Z,21.17
2022-11-20T12:16:23.086Z,17.25
2022-11-20T12:18:53.841Z,17.80
2022-11-20T12:21:28.428Z,19.60
2022-11-20T12:24:11.508Z,20.60
2022-11-20T12:27:03.015Z,18.20
2022-11-20T12:29:45.121Z,17.98
2022-11-20T12:32:39.063Z,19.88
2022-11-20T12:35:19.795Z,17.08
2022-11-20T12:37:57.834Z,16.60
2022-11-20T12:40:35.488Z,20.55
2022-11-20T12:43:33.325Z,19.33
2022-11-20T12:46:17.463Z,22.83
2022-11-20T12:48:56.368Z,17.88
2022-11-20T12:51:38.987Z,18.00
2022-11-20T12:54:37.343Z,17.95
2022-11-20T12:57:11.438Z,21.83
2022-11-20T12:59:54.617Z,16.30
2022-11-20T13:02:29.907Z,18.02
2022-11-20T13:05:29.300Z,19.20
2022-11-20T13:07:59.967Z,17.55
2022-11-20T13:10:36.223Z,18.40
2022-11-20T13:13:15.646Z,15.82
2022-11-20T13:15:53.170Z,17.13
2022-11-20T13:18:21.528Z,15.60
2022-11-20T13:20:50.624Z,19.35
2022-11-20T13:23:29.927Z,17.52
2022-11-20T13:26:08.855Z,18.17
2022-11-20T13:28:37.967Z,14.93
2022-11-20T13:31:05.882Z,16.42
2022-11-20T13:33:36.068Z,14.23
2022-11-20T13:36:06.883Z,14.25
2022-11-20T13:38:46.395Z,13.95
2022-11-20T13:41:34.242Z,13.40
2022-11-20T13:44:14.824Z,16.30
2022-11-20T13:46:45.550Z,13.10
2022-11-20T13:49:20.620Z,13.27
2022-11-20T13:51:51.474Z,14.45
2022-11-20T13:54:52.842Z,16.65
2022-11-20T13:57:42.099Z,13.35
2022-11-20T14:00:15.498Z,15.57
2022-11-20T14:02:44.726Z,14.60
2022-11-20T14:05:22.471Z,16.27
2022-11-20T14:07:52.364Z,12.70
2022-11-20T14:10:31.456Z,13.75
2022-11-20T14:13:00.570Z,13.25
2022-11-20T14:15:31.529Z,11.60
2022-11-20T14:18:00.341Z,16.02
2022-11-20T14:20:32.221Z,14.50
2022-11-20T14:23:00.297Z,17.17
2022-11-20T14:25:31.844Z,15.48
2022-11-20T14:28:02.086Z,13.98
2022-11-20T14:30:32.376Z,14.93
2022-11-20T14:33:05.263Z,15.27
2022-11-20T14:35:37.071Z,19.98
2022-11-20T14:38:05.890Z,21.15
2022-11-20T14:40:37.115Z,23.35
2022-11-20T14:43:20.625Z,19.15
2022-11-20T14:45:56.929Z,20.48
2022-11-20T14:48:30.345Z,26.00
2022-11-20T14:50:58.531Z,20.25
2022-11-20T14:53:27.431Z,23.70
2022-11-20T14:56:01.777Z,24.90
2022-11-20T14:58:32.734Z,27.40
2022-11-20T15:01:02.571Z,28.63
2022-11-20T15:03:34.926Z,32.03
2022-11-20T15:06:03.362Z,26.30
2022-11-20T15:08:31.809Z,20.42
2022-11-20T15:11:02.520Z,16.38
2022-11-20T15:13:34.076Z,18.85
2022-11-20T15:16:04.216Z,17.73
2022-11-20T15:18:34.587Z,17.73
2022-11-20T15:21:05.426Z,19.48
2022-11-20T15:23:33.463Z,20.45
2022-11-20T15:26:02.985Z,25.10
2022-11-20T15:28:33.779Z,30.02
2022-11-20T15:31:03.269Z,24.10
2022-11-20T15:33:31.381Z,25.77
2022-11-20T15:35:59.478Z,27.65
2022-11-20T15:38:28.122Z,21.02
2022-11-20T15:40:56.059Z,19.85
2022-11-20T15:43:25.488Z,18.20
2022-11-20T15:45:57.452Z,43.15
2022-11-20T15:48:28.588Z,82.90
2022-11-20T15:51:00.347Z,30.75
2022-11-20T15:53:28.314Z,21.15
2022-11-20T15:55:56.926Z,30.55
2022-11-20T15:58:27.930Z,26.88
2022-11-20T16:00:55.936Z,25.40
2022-11-20T16:03:24.559Z,26.48
2022-11-20T16:05:52.637Z,25.35
2022-11-20T16:08:20.568Z,26.52
2022-11-20T16:10:48.508Z,26.85
2022-11-20T16:13:46.962Z,45.83
2022-11-20T16:16:22.719Z,35.03
2022-11-20T16:18:50.882Z,43.13
2022-11-20T16:21:18.951Z,27.20
2022-11-20T16:23:47.125Z,40.40
2022-11-20T16:26:17.711Z,31.92
2022-11-20T16:28:45.822Z,38.42
2022-11-20T16:31:17.112Z,31.45
2022-11-20T16:33:50.510Z,45.10
2022-11-20T16:36:19.122Z,44.95
2022-11-20T16:38:47.205Z,37.33
2022-11-20T16:41:15.283Z,32.08
2022-11-20T16:43:48.563Z,25.48
2022-11-20T16:46:19.120Z,28.13
2022-11-20T16:48:47.293Z,28.15
2022-11-20T16:51:15.307Z,26.88
2022-11-20T16:53:43.573Z,27.00
2022-11-20T16:56:13.447Z,42.30
2022-11-20T16:58:41.407Z,39.03
2022-11-20T17:01:10.833Z,62.35
2022-11-20T17:03:41.399Z,94.25
2022-11-20T17:06:13.599Z,89.70
2022-11-20T17:08:41.587Z,85.10
2022-11-20T17:11:10.422Z,62.05
2022-11-20T17:13:40.045Z,45.25
2022-11-20T17:16:11.450Z,37.78
2022-11-20T17:18:41.214Z,35.60
2022-11-20T17:21:09.484Z,38.42
2022-11-20T17:23:39.215Z,34.53
2022-11-20T17:26:08.946Z,35.92
2022-11-20T17:28:37.926Z,23.80
2022-11-20T17:31:08.158Z,21.30
2022-11-20T17:33:37.961Z,24.23
2022-11-20T17:36:09.189Z,17.90
2022-11-20T17:38:37.512Z,14.98
2022-11-20T17:41:06.647Z,11.45
2022-11-20T17:43:37.032Z,10.73
2022-11-20T17:46:06.953Z,10.15
2022-11-20T17:48:35.004Z,7.38
2022-11-20T17:51:04.012Z,9.18
2022-11-20T17:53:37.360Z,9.35
2022-11-20T17:56:23.863Z,9.10
2022-11-20T17:58:51.969Z,8.45
2022-11-20T18:01:20.622Z,10.05
2022-11-20T18:03:49.207Z,8.25
2022-11-20T18:06:19.384Z,7.78
2022-11-20T18:08:49.913Z,11.70
2022-11-20T18:11:20.063Z,9.05
2022-11-20T18:14:08.078Z,7.55
2022-11-20T18:16:38.775Z,6.32
2022-11-20T18:19:06.903Z,7.25
2022-11-20T18:21:34.807Z,9.05
2022-11-20T18:24:05.536Z,8.18
2022-11-20T18:26:33.542Z,8.85
2022-11-20T18:29:07.080Z,8.25
2022-11-20T18:31:35.807Z,7.35
2022-11-20T18:34:03.762Z,5.88
2022-11-20T18:36:33.398Z,5.88
2022-11-20T18:39:02.011Z,8.07
2022-11-20T18:41:50.331Z,6.30
2022-11-20T18:44:37.777Z,7.18
2022-11-20T18:47:14.054Z,5.95
2022-11-20T18:49:42.943Z,10.75
2022-11-20T18:52:11.006Z,7.07
2022-11-20T18:54:38.968Z,10.23
2022-11-20T18:57:10.265Z,5.93
2022-11-20T18:59:38.136Z,6.95
2022-11-20T19:02:06.323Z,6.57
2022-11-20T19:04:34.726Z,8.32
2022-11-20T19:07:03.031Z,7.43
2022-11-20T19:09:31.135Z,5.93
2022-11-20T19:11:59.116Z,6.63
2022-11-20T19:14:28.556Z,5.53
2022-11-20T19:16:56.679Z,6.30
2022-11-20T19:19:24.924Z,8.57
2022-11-20T19:21:53.299Z,7.00
2022-11-20T19:24:21.180Z,6.35
2022-11-20T19:26:49.593Z,11.05
2022-11-20T19:29:18.326Z,6.88
2022-11-20T19:31:47.626Z,8.18
2022-11-20T19:34:15.896Z,5.47
2022-11-20T19:36:45.027Z,6.30
2022-11-20T19:39:13.653Z,9.05
2022-11-20T19:41:42.403Z,11.98
2022-11-20T19:44:12.380Z,6.38
2022-11-20T19:46:40.896Z,6.80
2022-11-20T19:49:12.883Z,5.80
2022-11-20T19:51:45.697Z,6.47
2022-11-20T19:54:14.111Z,5.85
2022-11-20T19:56:42.102Z,5.72
2022-11-20T19:59:10.066Z,6.93
2022-11-20T20:01:38.104Z,6.43
2022-11-20T20:04:07.006Z,6.68
2022-11-20T20:06:38.212Z,5.00
2022-11-20T20:09:08.184Z,5.85
2022-11-20T20:11:37.190Z,6.32
2022-11-20T20:14:07.020Z,5.90
2022-11-20T20:16:35.632Z,5.03
2022-11-20T20:19:05.153Z,5.72
2022-11-20T20:21:34.148Z,4.50
2022-11-20T20:24:04.198Z,7.93
2022-11-20T20:26:33.827Z,4.90
2022-11-20T20:29:02.940Z,4.80
2022-11-20T20:31:33.201Z,4.22
2022-11-20T20:34:01.489Z,4.55
2022-11-20T20:36:29.440Z,4.90
2022-11-20T20:39:00.240Z,5.28
2022-11-20T20:41:29.975Z,4.13
2022-11-20T20:44:15.583Z,4.75
2022-11-20T20:46:43.786Z,5.97
2022-11-20T20:49:11.803Z,4.53
2022-11-20T20:51:39.756Z,5.30
2022-11-20T20:54:07.784Z,5.43
2022-11-20T20:56:37.119Z,4.10
2022-11-20T20:59:06.510Z,4.57
2022-11-20T21:01:34.514Z,4.22
2022-11-20T21:04:02.556Z,4.70
2022-11-20T21:06:30.483Z,4.22
2022-11-20T21:08:58.756Z,5.35
2022-11-20T21:11:26.852Z,4.97
2022-11-20T21:13:56.098Z,3.40
2022-11-20T21:16:25.068Z,5.40
2022-11-20T21:18:53.005Z,3.83
2022-11-20T21:21:38.282Z,4.57
2022-11-20T21:24:07.113Z,3.70
2022-11-20T21:26:35.002Z,4.13
2022-11-20T21:29:04.589Z,3.83
2022-11-20T21:31:32.512Z,4.32
2022-11-20T21:34:01.294Z,4.65
2022-11-20T21:36:30.548Z,3.55
2022-11-20T21:38:59.741Z,3.22
2022-11-20T21:41:30.195Z,3.80
2022-11-20T21:44:29.750Z,3.95
2022-11-20T21:46:48.963Z,4.38
2022-11-20T21:49:18.230Z,6.18
2022-11-20T21:51:46.216Z,4.30
2022-11-20T21:54:14.209Z,3.40
2022-11-20T21:56:42.097Z,3.55
2022-11-20T21:59:13.660Z,4.15
2022-11-20T22:01:41.805Z,4.00
2022-11-20T22:04:15.909Z,3.55
2022-11-20T22:06:43.938Z,4.70
2022-11-20T22:09:12.139Z,4.95
2022-11-20T22:11:40.323Z,3.60
2022-11-20T22:14:22.955Z,4.68
2022-11-20T22:16:53.849Z,3.92
2022-11-20T22:19:24.380Z,4.75
2022-11-20T22:21:52.702Z,7.68
2022-11-20T22:24:22.286Z,3.95
2022-11-20T22:26:50.744Z,4.70
2022-11-20T22:29:20.828Z,4.25
2022-11-20T22:31:49.410Z,5.18
2022-11-20T22:34:17.378Z,5.82
2022-11-20T22:36:46.677Z,5.30
2022-11-20T22:39:14.656Z,4.05
2022-11-20T22:41:42.582Z,4.40
2022-11-20T22:44:14.340Z,4.60
2022-11-20T22:46:42.324Z,4.10
2022-11-20T22:49:10.239Z,4.53
2022-11-20T22:51:40.294Z,5.28
2022-11-20T22:54:12.542Z,6.00
2022-11-20T22:56:40.982Z,6.63
2022-11-20T22:59:09.046Z,5.60
2022-11-20T23:01:37.908Z,5.07
2022-11-20T23:04:08.045Z,6.05
2022-11-20T23:06:36.101Z,10.52
2022-11-20T23:09:04.819Z,4.80
2022-11-20T23:11:35.119Z,5.78
2022-11-20T23:14:05.422Z,4.60
2022-11-20T23:16:34.826Z,5.18
2022-11-20T23:19:05.464Z,4.50
2022-11-20T23:21:33.953Z,5.50
2022-11-20T23:24:02.634Z,4.40
2022-11-20T23:26:35.896Z,4.93
2022-11-20T23:29:05.041Z,5.57
2022-11-20T23:31:36.006Z,7.18
2022-11-20T23:34:04.138Z,10.00
2022-11-20T23:36:32.101Z,6.13
2022-11-20T23:39:00.116Z,8.18
2022-11-20T23:41:28.054Z,6.53
2022-11-20T23:43:57.827Z,7.32
2022-11-20T23:46:25.773Z,8.18
2022-11-20T23:48:53.649Z,7.03
2022-11-20T23:51:23.090Z,5.68
2022-11-20T23:53:53.488Z,6.05
2022-11-20T23:56:21.454Z,5.72
2022-11-20T23:58:49.523Z,7.78
